createdAt,value
2019-03-15T00:00:03.131Z,18.4
2019-03-15T00:01:03.162Z,18.4
2019-03-15T00:02:03.725Z,20.9
2019-03-15T00:03:03.954Z,19.4
2019-03-15T00:04:03.870Z,18.4
2019-03-15T00:05:03.891Z,20.9
2019-03-15T00:06:03.788Z,14.8
2019-03-15T00:07:04.115Z,14.8
2019-03-15T00:08:03.728Z,20.9
2019-03-15T00:09:03.459Z,13.3
2019-03-15T00:10:03.718Z,14.8
2019-03-15T00:11:04.681Z,15.8
2019-03-15T00:12:03.048Z,17.3
2019-03-15T00:13:03.403Z,13.3
2019-03-15T00:14:03.855Z,14.8
2019-03-15T00:15:03.536Z,14.8
2019-03-15T00:16:03.793Z,12.2
2019-03-15T00:17:03.653Z,12.2
2019-03-15T00:18:03.874Z,11.2
2019-03-15T00:19:03.747Z,17.3
2019-03-15T00:20:03.661Z,15.8
2019-03-15T00:21:03.670Z,15.8
2019-03-15T00:22:03.613Z,17.3
2019-03-15T00:23:03.665Z,13.3
2019-03-15T00:24:03.561Z,14.8
2019-03-15T00:25:03.571Z,12.2
2019-03-15T00:26:03.251Z,15.8
2019-03-15T00:27:03.570Z,14.8
2019-03-15T00:28:03.355Z,12.2
2019-03-15T00:29:03.153Z,11.2
2019-03-15T00:30:03.202Z,13.3
2019-03-15T00:31:03.350Z,11.2
2019-03-15T00:32:02.944Z,9.7
2019-03-15T00:33:03.087Z,8.6
2019-03-15T00:34:03.021Z,9.7
2019-03-15T00:35:03.271Z,9.7
2019-03-15T00:36:03.027Z,14.8
2019-03-15T00:37:03.770Z,14.8
2019-03-15T00:38:03.219Z,11.2
2019-03-15T00:39:03.326Z,12.2
2019-03-15T00:40:03.097Z,11.2
2019-03-15T00:41:03.065Z,9.7
2019-03-15T00:42:02.982Z,12.2
2019-03-15T00:43:03.172Z,12.2
2019-03-15T00:44:03.300Z,13.3
2019-03-15T00:45:03.192Z,14.8
2019-03-15T00:46:02.681Z,11.2
2019-03-15T00:47:03.193Z,12.2
2019-03-15T00:48:03.147Z,13.3
2019-03-15T00:49:03.583Z,11.2
2019-03-15T00:50:02.860Z,14.8
2019-03-15T00:51:03.794Z,14.8
2019-03-15T00:52:03.691Z,14.8
2019-03-15T00:53:04.167Z,12.2
2019-03-15T00:54:03.689Z,11.2
2019-03-15T00:55:03.829Z,8.6
2019-03-15T00:56:02.942Z,6.1
2019-03-15T00:57:03.583Z,9.7
2019-03-15T00:58:03.569Z,7.2
2019-03-15T00:59:03.929Z,7.2
2019-03-15T01:00:03.984Z,9.7
2019-03-15T01:01:03.756Z,7.2
2019-03-15T01:02:03.381Z,7.2
2019-03-15T01:03:03.446Z,7.2
2019-03-15T01:04:03.585Z,7.2
2019-03-15T01:05:03.939Z,7.2
2019-03-15T01:06:03.166Z,7.2
2019-03-15T01:07:03.366Z,7.2
2019-03-15T01:08:03.672Z,7.2
2019-03-15T01:09:03.409Z,11.2
2019-03-15T01:10:03.538Z,9.7
2019-03-15T01:11:03.665Z,7.2
2019-03-15T01:12:03.723Z,12.2
2019-03-15T01:13:03.605Z,8.6
2019-03-15T01:14:03.257Z,11.2
2019-03-15T01:15:03.177Z,13.3
2019-03-15T01:16:03.555Z,14.8
2019-03-15T01:17:03.142Z,14.8
2019-03-15T01:18:03.301Z,11.2
2019-03-15T01:19:03.181Z,13.3
2019-03-15T01:20:03.269Z,12.2
2019-03-15T01:21:03.044Z,8.6
2019-03-15T01:22:03.298Z,11.2
2019-03-15T01:23:03.192Z,11.2
2019-03-15T01:24:03.194Z,13.3
2019-03-15T01:25:03.127Z,9.7
2019-03-15T01:26:02.969Z,8.6
2019-03-15T01:27:03.190Z,8.6
2019-03-15T01:28:03.065Z,9.7
2019-03-15T01:29:03.046Z,8.6
2019-03-15T01:30:02.988Z,7.2
2019-03-15T01:31:03.064Z,8.6
2019-03-15T01:32:02.995Z,9.7
2019-03-15T01:33:03.557Z,6.1
2019-03-15T01:34:03.906Z,8.6
2019-03-15T01:35:04.083Z,9.7
2019-03-15T01:36:03.892Z,8.6
2019-03-15T01:37:03.634Z,7.2
2019-03-15T01:38:03.756Z,8.6
2019-03-15T01:39:03.744Z,8.6
2019-03-15T01:40:03.574Z,6.1
2019-03-15T01:41:04.658Z,9.7
2019-03-15T01:42:03.387Z,8.6
2019-03-15T01:43:03.906Z,8.6
2019-03-15T01:44:04.042Z,6.1
2019-03-15T01:45:03.244Z,7.2
2019-03-15T01:46:03.607Z,9.7
2019-03-15T01:47:03.595Z,7.2
2019-03-15T01:48:03.407Z,7.2
2019-03-15T01:49:03.364Z,9.7
2019-03-15T01:50:03.399Z,8.6
2019-03-15T01:51:03.426Z,14.8
2019-03-15T01:52:01.887Z,13.3
2019-03-15T01:53:03.299Z,14.8
2019-03-15T01:54:03.162Z,11.2
2019-03-15T01:55:03.233Z,11.2
2019-03-15T01:56:03.282Z,11.2
2019-03-15T01:57:03.238Z,13.3
2019-03-15T01:58:03.332Z,9.7
2019-03-15T01:59:02.946Z,8.6
2019-03-15T02:00:02.812Z,8.6
2019-03-15T02:01:04.995Z,8.6
2019-03-15T02:02:03.052Z,11.2
2019-03-15T02:03:03.656Z,12.2
2019-03-15T02:04:02.955Z,12.2
2019-03-15T02:05:03.893Z,9.7
2019-03-15T02:06:02.935Z,9.7
2019-03-15T02:07:03.963Z,9.7
2019-03-15T02:08:03.931Z,11.2
2019-03-15T02:09:03.583Z,13.3
2019-03-15T02:10:03.805Z,12.2
2019-03-15T02:11:04.123Z,11.2
2019-03-15T02:12:03.607Z,8.6
2019-03-15T02:13:03.701Z,8.6
2019-03-15T02:14:03.729Z,11.2
2019-03-15T02:15:03.859Z,13.3
2019-03-15T02:16:03.409Z,14.8
2019-03-15T02:17:03.687Z,15.8
2019-03-15T02:18:03.723Z,13.3
2019-03-15T02:19:03.739Z,11.2
2019-03-15T02:20:03.522Z,12.2
2019-03-15T02:21:03.525Z,14.8
2019-03-15T02:22:03.603Z,12.2
2019-03-15T02:23:03.279Z,13.3
2019-03-15T02:24:03.672Z,11.2
2019-03-15T02:25:03.672Z,9.7
2019-03-15T02:26:03.764Z,12.2
2019-03-15T02:27:03.393Z,13.3
2019-03-15T02:28:03.671Z,8.6
2019-03-15T02:29:03.325Z,9.7
2019-03-15T02:30:03.529Z,8.6
2019-03-15T02:31:03.314Z,9.7
2019-03-15T02:32:03.332Z,9.7
2019-03-15T02:33:03.259Z,7.2
2019-03-15T02:34:03.245Z,8.6
2019-03-15T02:35:03.528Z,7.2
2019-03-15T02:36:03.094Z,8.6
2019-03-15T02:37:03.260Z,8.6
2019-03-15T02:38:03.193Z,7.2
2019-03-15T02:39:03.456Z,7.2
2019-03-15T02:40:02.830Z,7.2
2019-03-15T02:41:05.074Z,8.6
2019-03-15T02:42:03.171Z,6.1
2019-03-15T02:43:02.887Z,6.1
2019-03-15T02:44:03.013Z,6.1
2019-03-15T02:45:03.357Z,5
2019-03-15T02:46:03.178Z,3.6
2019-03-15T02:47:03.903Z,3.6
2019-03-15T02:48:03.162Z,3.6
2019-03-15T02:49:03.839Z,6.1
2019-03-15T02:50:03.058Z,13.3
2019-03-15T02:51:03.081Z,9.7
2019-03-15T02:52:03.903Z,19.4
2019-03-15T02:53:03.813Z,23.4
2019-03-15T02:54:03.742Z,9.7
2019-03-15T02:55:03.933Z,15.8
2019-03-15T02:56:04.093Z,19.4
2019-03-15T02:57:03.835Z,25.6
2019-03-15T02:58:03.314Z,22
2019-03-15T02:59:03.851Z,15.8
2019-03-15T03:00:03.756Z,15.8
2019-03-15T03:01:03.899Z,15.8
2019-03-15T03:02:03.954Z,15.8
2019-03-15T03:03:03.768Z,15.8
2019-03-15T03:04:03.765Z,15.8
2019-03-15T03:05:03.588Z,15.8
2019-03-15T03:06:03.859Z,15.8
2019-03-15T03:07:03.839Z,15.8
2019-03-15T03:08:03.748Z,15.8
2019-03-15T03:09:03.860Z,15.8
2019-03-15T03:10:03.628Z,14.8
2019-03-15T03:11:03.234Z,14.8
2019-03-15T03:12:03.509Z,14.8
2019-03-15T03:13:03.271Z,14.8
2019-03-15T03:14:04.874Z,14.8
2019-03-15T03:15:03.346Z,17.3
2019-03-15T03:16:03.022Z,17.3
2019-03-15T03:17:03.427Z,17.3
2019-03-15T03:18:03.054Z,17.3
2019-03-15T03:19:03.234Z,17.3
2019-03-15T03:20:03.490Z,17.3
2019-03-15T03:21:03.121Z,12.2
2019-03-15T03:22:03.347Z,14.8
2019-03-15T03:23:04.499Z,13.3
2019-03-15T03:24:03.818Z,17.3
2019-03-15T03:25:03.296Z,18.4
2019-03-15T03:26:03.947Z,19.4
2019-03-15T03:27:02.900Z,15.8
2019-03-15T03:28:02.757Z,15.8
2019-03-15T03:29:03.913Z,23.4
2019-03-15T03:30:03.210Z,19.4
2019-03-15T03:31:03.895Z,18.4
2019-03-15T03:32:03.274Z,20.9
2019-03-15T03:33:03.514Z,23.4
2019-03-15T03:34:03.235Z,24.5
2019-03-15T03:35:03.362Z,22
2019-03-15T03:36:03.806Z,22
2019-03-15T03:37:03.787Z,24.5
2019-03-15T03:38:03.858Z,28.1
2019-03-15T03:39:03.682Z,23.4
2019-03-15T03:40:03.710Z,19.4
2019-03-15T03:41:03.480Z,20.9
2019-03-15T03:42:03.703Z,23.4
2019-03-15T03:43:03.765Z,23.4
2019-03-15T03:44:03.668Z,15.8
2019-03-15T03:45:03.734Z,18.4
2019-03-15T03:46:03.605Z,14.8
2019-03-15T03:47:03.691Z,17.3
2019-03-15T03:48:03.839Z,15.8
2019-03-15T03:49:03.645Z,17.3
2019-03-15T03:50:03.579Z,18.4
2019-03-15T03:51:03.527Z,15.8
2019-03-15T03:52:03.425Z,13.3
2019-03-15T03:53:03.209Z,14.8
2019-03-15T03:54:04.689Z,11.2
2019-03-15T03:55:03.623Z,14.8
2019-03-15T03:56:03.324Z,14.8
2019-03-15T03:57:03.613Z,13.3
2019-03-15T03:58:03.308Z,13.3
2019-03-15T03:59:03.549Z,14.8
2019-03-15T04:00:03.308Z,13.3
2019-03-15T04:01:03.617Z,12.2
2019-03-15T04:02:03.065Z,11.2
2019-03-15T04:03:02.882Z,13.3
2019-03-15T04:04:03.126Z,12.2
2019-03-15T04:05:02.981Z,9.7
2019-03-15T04:06:03.182Z,8.6
2019-03-15T04:07:03.133Z,8.6
2019-03-15T04:08:02.885Z,8.6
2019-03-15T04:09:03.889Z,8.6
2019-03-15T04:10:06.522Z,9.7
2019-03-15T04:11:04.026Z,9.7
2019-03-15T04:12:03.849Z,7.2
2019-03-15T04:13:03.582Z,6.1
2019-03-15T04:14:03.976Z,7.2
2019-03-15T04:15:03.944Z,6.1
2019-03-15T04:16:03.754Z,6.1
2019-03-15T04:17:03.628Z,8.6
2019-03-15T04:18:07.059Z,7.2
2019-03-15T04:19:03.609Z,6.1
2019-03-15T04:20:03.627Z,5
2019-03-15T04:21:03.923Z,5
2019-03-15T04:22:03.421Z,2.5
2019-03-15T04:23:03.885Z,6.1
2019-03-15T04:24:03.429Z,6.1
2019-03-15T04:25:07.621Z,2.5
2019-03-15T04:26:03.424Z,2.5
2019-03-15T04:27:03.753Z,3.6
2019-03-15T04:28:03.642Z,3.6
2019-03-15T04:29:03.517Z,2.5
2019-03-15T04:30:03.505Z,2.5
2019-03-15T04:31:03.149Z,2.5
2019-03-15T04:32:03.478Z,3.6
2019-03-15T04:33:03.226Z,2.5
2019-03-15T04:34:03.424Z,5
2019-03-15T04:35:03.357Z,3.6
2019-03-15T04:36:03.399Z,3.6
2019-03-15T04:37:03.159Z,2.5
2019-03-15T04:38:03.302Z,3.6
2019-03-15T04:39:03.109Z,2.5
2019-03-15T04:40:03.220Z,5
2019-03-15T04:41:02.970Z,5
2019-03-15T04:42:03.892Z,6.1
2019-03-15T04:43:03.003Z,6.1
2019-03-15T04:44:03.798Z,3.6
2019-03-15T04:45:03.304Z,3.6
2019-03-15T04:46:03.866Z,3.6
2019-03-15T04:47:03.164Z,3.6
2019-03-15T04:48:03.069Z,5
2019-03-15T04:49:02.971Z,5
2019-03-15T04:50:03.837Z,3.6
2019-03-15T04:51:02.935Z,5
2019-03-15T04:52:03.980Z,5
2019-03-15T04:53:03.944Z,5
2019-03-15T04:54:06.227Z,5
2019-03-15T04:55:03.809Z,5
2019-03-15T04:56:03.874Z,6.1
2019-03-15T04:57:03.691Z,5
2019-03-15T04:58:03.766Z,3.6
2019-03-15T04:59:03.682Z,7.2
2019-03-15T05:00:03.880Z,7.2
2019-03-15T05:01:03.618Z,6.1
2019-03-15T05:02:04.387Z,6.1
2019-03-15T05:03:03.460Z,6.1
2019-03-15T05:04:03.383Z,6.1
2019-03-15T05:05:03.590Z,6.1
2019-03-15T05:06:04.472Z,6.1
2019-03-15T05:07:03.935Z,6.1
2019-03-15T05:08:03.520Z,6.1
2019-03-15T05:09:03.716Z,6.1
2019-03-15T05:10:03.440Z,3.6
2019-03-15T05:11:03.500Z,3.6
2019-03-15T05:12:03.366Z,5
2019-03-15T05:13:03.786Z,2.5
2019-03-15T05:14:03.843Z,5
2019-03-15T05:15:03.790Z,7.2
2019-03-15T05:16:03.509Z,6.1
2019-03-15T05:17:03.550Z,8.6
2019-03-15T05:18:03.648Z,5
2019-03-15T05:19:03.240Z,6.1
2019-03-15T05:20:03.758Z,6.1
2019-03-15T05:21:03.171Z,6.1
2019-03-15T05:22:03.114Z,8.6
2019-03-15T05:23:03.142Z,8.6
2019-03-15T05:24:03.627Z,6.1
2019-03-15T05:25:03.410Z,5
2019-03-15T05:26:03.264Z,6.1
2019-03-15T05:27:03.331Z,7.2
2019-03-15T05:28:03.191Z,5
2019-03-15T05:29:02.853Z,5
2019-03-15T05:30:03.161Z,6.1
2019-03-15T05:31:03.012Z,6.1
2019-03-15T05:32:03.276Z,6.1
2019-03-15T05:33:03.987Z,6.1
2019-03-15T05:34:03.028Z,6.1
2019-03-15T05:35:03.049Z,6.1
2019-03-15T05:36:03.906Z,6.1
2019-03-15T05:37:02.922Z,6.1
2019-03-15T05:38:03.745Z,6.1
2019-03-15T05:39:03.834Z,6.1
2019-03-15T05:40:03.523Z,6.1
2019-03-15T05:41:03.697Z,6.1
2019-03-15T05:42:03.617Z,6.1
2019-03-15T05:43:03.548Z,6.1
2019-03-15T05:44:03.796Z,6.1
2019-03-15T05:45:03.888Z,6.1
2019-03-15T05:46:03.512Z,6.1
2019-03-15T05:47:03.597Z,6.1
2019-03-15T05:48:03.390Z,6.1
2019-03-15T05:49:03.506Z,6.1
2019-03-15T05:50:03.525Z,6.1
2019-03-15T05:51:03.569Z,6.1
2019-03-15T05:52:03.719Z,6.1
2019-03-15T05:53:03.465Z,6.1
2019-03-15T05:54:03.119Z,6.1
2019-03-15T05:55:03.842Z,6.1
2019-03-15T05:56:03.525Z,6.1
2019-03-15T05:57:03.411Z,6.1
2019-03-15T05:58:03.260Z,6.1
2019-03-15T05:59:03.291Z,8.6
2019-03-15T06:00:03.542Z,8.6
2019-03-15T06:01:02.933Z,8.6
2019-03-15T06:02:03.566Z,12.2
2019-03-15T06:03:03.287Z,12.2
2019-03-15T06:04:03.247Z,8.6
2019-03-15T06:05:03.692Z,9.7
2019-03-15T06:06:03.226Z,9.7
2019-03-15T06:07:03.231Z,9.7
2019-03-15T06:08:03.324Z,9.7
2019-03-15T06:09:02.929Z,9.7
2019-03-15T06:10:02.068Z,9.7
2019-03-15T06:11:02.832Z,9.7
2019-03-15T06:12:03.161Z,9.7
2019-03-15T06:13:03.005Z,9.7
2019-03-15T06:14:03.954Z,9.7
2019-03-15T06:15:03.166Z,9.7
2019-03-15T06:16:03.003Z,9.7
2019-03-15T06:17:03.163Z,9.7
2019-03-15T06:18:02.941Z,9.7
2019-03-15T06:19:03.911Z,9.7
2019-03-15T06:20:06.854Z,9.7
2019-03-15T06:21:02.456Z,9.7
2019-03-15T06:22:03.671Z,9.7
2019-03-15T06:23:03.452Z,9.7
2019-03-15T06:24:03.683Z,9.7
2019-03-15T06:25:03.724Z,9.7
2019-03-15T06:26:03.497Z,9.7
2019-03-15T06:27:03.635Z,9.7
2019-03-15T06:28:03.681Z,9.7
2019-03-15T06:29:03.438Z,8.6
2019-03-15T06:30:03.934Z,8.6
2019-03-15T06:31:03.373Z,8.6
2019-03-15T06:32:03.144Z,8.6
2019-03-15T06:33:02.866Z,8.6
2019-03-15T06:34:03.511Z,7.2
2019-03-15T06:35:03.545Z,9.7
2019-03-15T06:36:03.157Z,6.1
2019-03-15T06:37:03.561Z,8.6
2019-03-15T06:38:03.332Z,8.6
2019-03-15T06:39:03.064Z,8.6
2019-03-15T06:40:03.386Z,12.2
2019-03-15T06:41:03.018Z,8.6
2019-03-15T06:42:03.398Z,11.2
2019-03-15T06:43:03.181Z,7.2
2019-03-15T06:44:03.064Z,7.2
2019-03-15T06:45:03.218Z,8.6
2019-03-15T06:46:03.172Z,6.1
2019-03-15T06:47:03.320Z,7.2
2019-03-15T06:48:03.245Z,9.7
2019-03-15T06:49:03.196Z,7.2
2019-03-15T06:50:03.382Z,7.2
2019-03-15T06:51:03.135Z,13.3
2019-03-15T06:52:03.489Z,11.2
2019-03-15T06:53:03.367Z,9.7
2019-03-15T06:54:12.363Z,12.2
2019-03-15T06:55:05.901Z,12.2
2019-03-15T06:56:03.242Z,11.2
2019-03-15T06:57:03.028Z,11.2
2019-03-15T06:58:03.604Z,11.2
2019-03-15T06:59:03.244Z,8.6
2019-03-15T07:00:04.406Z,12.2
2019-03-15T07:01:03.303Z,9.7
2019-03-15T07:02:02.913Z,9.7
2019-03-15T07:03:02.897Z,9.7
2019-03-15T07:04:03.522Z,9.7
2019-03-15T07:05:03.379Z,9.7
2019-03-15T07:06:03.685Z,9.7
2019-03-15T07:07:03.798Z,9.7
2019-03-15T07:08:03.659Z,9.7
2019-03-15T07:09:03.123Z,13.3
2019-03-15T07:10:03.941Z,15.8
2019-03-15T07:11:02.914Z,12.2
2019-03-15T07:12:11.912Z,12.2
2019-03-15T07:13:03.770Z,12.2
2019-03-15T07:14:03.723Z,12.2
2019-03-15T07:15:03.743Z,12.2
2019-03-15T07:16:03.513Z,12.2
2019-03-15T07:17:03.670Z,13.3
2019-03-15T07:18:03.432Z,17.3
2019-03-15T07:19:03.633Z,17.3
2019-03-15T07:20:03.697Z,18.4
2019-03-15T07:21:03.496Z,18.4
2019-03-15T07:22:03.323Z,14.8
2019-03-15T07:23:03.397Z,14.8
2019-03-15T07:24:02.869Z,14.8
2019-03-15T07:25:02.979Z,14.8
2019-03-15T07:26:03.033Z,14.8
2019-03-15T07:27:14.070Z,18.4
2019-03-15T07:28:02.961Z,14.8
2019-03-15T07:29:03.187Z,17.3
2019-03-15T07:30:03.179Z,17.3
2019-03-15T07:31:03.019Z,13.3
2019-03-15T07:32:03.108Z,13.3
2019-03-15T07:33:02.847Z,14.8
2019-03-15T07:34:03.083Z,14.8
2019-03-15T07:35:03.907Z,12.2
2019-03-15T07:36:03.586Z,12.2
2019-03-15T07:37:03.483Z,12.2
2019-03-15T07:38:02.977Z,13.3
2019-03-15T07:39:03.866Z,9.7
2019-03-15T07:40:03.752Z,9.7
2019-03-15T07:41:03.601Z,11.2
2019-03-15T07:42:03.170Z,14.8
2019-03-15T07:43:05.798Z,11.2
2019-03-15T07:44:04.012Z,9.7
2019-03-15T07:45:03.672Z,9.7
2019-03-15T07:46:03.965Z,13.3
2019-03-15T07:47:03.646Z,13.3
2019-03-15T07:48:03.411Z,13.3
2019-03-15T07:49:03.788Z,7.2
2019-03-15T07:50:03.452Z,11.2
2019-03-15T07:51:03.089Z,11.2
2019-03-15T07:52:04.454Z,11.2
2019-03-15T07:53:03.451Z,8.6
2019-03-15T07:54:03.307Z,13.3
2019-03-15T07:55:03.228Z,13.3
2019-03-15T07:56:03.193Z,12.2
2019-03-15T07:57:03.848Z,7.2
2019-03-15T07:58:03.097Z,8.6
2019-03-15T07:59:03.030Z,7.2
2019-03-15T08:00:03.376Z,12.2
2019-03-15T08:01:03.349Z,9.7
2019-03-15T08:02:03.068Z,8.6
2019-03-15T08:03:03.144Z,9.7
2019-03-15T08:04:18.037Z,8.6
2019-03-15T08:05:03.197Z,12.2
2019-03-15T08:06:03.165Z,8.6
2019-03-15T08:07:03.039Z,12.2
2019-03-15T08:08:03.405Z,13.3
2019-03-15T08:09:02.878Z,8.6
2019-03-15T08:10:03.032Z,13.3
2019-03-15T08:11:03.825Z,8.6
2019-03-15T08:12:03.065Z,9.7
2019-03-15T08:13:03.719Z,12.2
2019-03-15T08:14:03.719Z,15.8
2019-03-15T08:15:03.081Z,12.2
2019-03-15T08:16:03.634Z,9.7
2019-03-15T08:17:03.753Z,12.2
2019-03-15T08:18:03.417Z,9.7
2019-03-15T08:19:05.702Z,7.2
2019-03-15T08:20:03.895Z,8.6
2019-03-15T08:21:02.608Z,13.3
2019-03-15T08:22:03.721Z,9.7
2019-03-15T08:23:03.663Z,9.7
2019-03-15T08:24:03.842Z,9.7
2019-03-15T08:25:03.803Z,11.2
2019-03-15T08:26:03.394Z,8.6
2019-03-15T08:27:03.830Z,9.7
2019-03-15T08:28:03.839Z,5
2019-03-15T08:29:03.888Z,6.1
2019-03-15T08:30:03.217Z,9.7
2019-03-15T08:31:03.075Z,7.2
2019-03-15T08:32:03.708Z,7.2
2019-03-15T08:33:11.710Z,7.2
2019-03-15T08:34:03.488Z,9.7
2019-03-15T08:35:04.680Z,13.3
2019-03-15T08:36:03.495Z,9.7
2019-03-15T08:37:03.249Z,12.2
2019-03-15T08:38:05.818Z,11.2
2019-03-15T08:39:03.726Z,12.2
2019-03-15T08:40:03.928Z,8.6
2019-03-15T08:41:03.784Z,8.6
2019-03-15T08:42:03.555Z,13.3
2019-03-15T08:43:03.386Z,9.7
2019-03-15T08:44:03.240Z,14.8
2019-03-15T08:45:02.396Z,9.7
2019-03-15T08:46:03.686Z,9.7
2019-03-15T08:47:03.133Z,12.2
2019-03-15T08:48:03.505Z,9.7
2019-03-15T08:49:03.097Z,9.7
2019-03-15T08:50:03.267Z,18.4
2019-03-15T08:51:03.358Z,15.8
2019-03-15T08:52:04.604Z,13.3
2019-03-15T08:53:03.221Z,15.8
2019-03-15T08:54:03.130Z,9.7
2019-03-15T08:55:06.323Z,13.3
2019-03-15T08:56:03.170Z,12.2
2019-03-15T08:57:03.186Z,9.7
2019-03-15T08:58:22.937Z,13.3
2019-03-15T08:59:03.885Z,14.8
2019-03-15T09:00:03.884Z,14.8
2019-03-15T09:01:03.657Z,9.7
2019-03-15T09:02:03.813Z,9.7
2019-03-15T09:03:02.676Z,9.7
2019-03-15T09:04:03.026Z,9.7
2019-03-15T09:05:03.156Z,9.7
2019-03-15T09:06:03.896Z,9.7
2019-03-15T09:07:03.672Z,9.7
2019-03-15T09:08:03.888Z,9.7
2019-03-15T09:09:03.623Z,15.8
2019-03-15T09:10:04.171Z,19.4
2019-03-15T09:11:03.670Z,13.3
2019-03-15T09:12:03.523Z,17.3
2019-03-15T09:13:03.433Z,15.8
2019-03-15T09:14:03.928Z,14.8
2019-03-15T09:15:03.771Z,8.6
2019-03-15T09:16:03.555Z,14.8
2019-03-15T09:17:03.439Z,13.3
2019-03-15T09:18:03.586Z,9.7
2019-03-15T09:19:03.570Z,14.8
2019-03-15T09:20:03.670Z,18.4
2019-03-15T09:21:01.782Z,18.4
2019-03-15T09:22:03.472Z,20.9
2019-03-15T09:23:03.664Z,19.4
2019-03-15T09:24:03.427Z,17.3
2019-03-15T09:25:03.165Z,19.4
2019-03-15T09:26:03.754Z,11.2
2019-03-15T09:27:03.405Z,11.2
2019-03-15T09:28:03.372Z,11.2
2019-03-15T09:29:03.738Z,12.2
2019-03-15T09:30:03.256Z,13.3
2019-03-15T09:31:03.128Z,15.8
2019-03-15T09:32:09.852Z,15.8
2019-03-15T09:33:03.812Z,15.8
2019-03-15T09:34:03.487Z,17.3
2019-03-15T09:35:03.285Z,14.8
2019-03-15T09:36:03.549Z,11.2
2019-03-15T09:37:03.209Z,14.8
2019-03-15T09:38:03.151Z,11.2
2019-03-15T09:39:03.380Z,15.8
2019-03-15T09:40:03.203Z,17.3
2019-03-15T09:41:03.178Z,17.3
2019-03-15T09:42:03.757Z,15.8
2019-03-15T09:43:02.971Z,15.8
2019-03-15T09:44:03.197Z,7.2
2019-03-15T09:45:02.943Z,8.6
2019-03-15T09:46:02.878Z,12.2
2019-03-15T09:47:04.107Z,9.7
2019-03-15T09:48:03.764Z,8.6
2019-03-15T09:49:04.047Z,11.2
2019-03-15T09:50:03.552Z,18.4
2019-03-15T09:51:03.623Z,8.6
2019-03-15T09:52:03.645Z,24.5
2019-03-15T09:53:06.705Z,17.3
2019-03-15T09:54:03.491Z,18.4
2019-03-15T09:55:03.589Z,12.2
2019-03-15T09:56:03.464Z,17.3
2019-03-15T09:57:03.494Z,25.6
2019-03-15T09:58:03.529Z,20.9
2019-03-15T09:59:03.390Z,12.2
2019-03-15T10:00:03.550Z,22
2019-03-15T10:01:06.904Z,22
2019-03-15T10:02:03.337Z,22
2019-03-15T10:03:03.166Z,19.4
2019-03-15T10:04:03.381Z,14.8
2019-03-15T10:05:12.086Z,17.3
2019-03-15T10:06:20.045Z,19.4
2019-03-15T10:07:03.131Z,19.4
2019-03-15T10:08:03.009Z,22
2019-03-15T10:09:03.964Z,28.1
2019-03-15T10:10:19.564Z,22
2019-03-15T10:11:03.731Z,24.5
2019-03-15T10:12:04.017Z,28.1
2019-03-15T10:13:06.848Z,19.4
2019-03-15T10:14:03.822Z,22
2019-03-15T10:15:03.789Z,17.3
2019-03-15T10:16:03.694Z,20.9
2019-03-15T10:17:03.905Z,15.8
2019-03-15T10:18:03.819Z,18.4
2019-03-15T10:19:03.852Z,13.3
2019-03-15T10:20:03.653Z,15.8
2019-03-15T10:21:03.819Z,18.4
2019-03-15T10:22:03.661Z,18.4
2019-03-15T10:23:06.963Z,18.4
2019-03-15T10:24:03.013Z,22
2019-03-15T10:25:03.676Z,20.9
2019-03-15T10:26:03.171Z,12.2
2019-03-15T10:27:03.851Z,18.4
2019-03-15T10:28:02.699Z,8.6
2019-03-15T10:29:20.030Z,9.7
2019-03-15T10:30:03.661Z,12.2
2019-03-15T10:31:03.652Z,15.8
2019-03-15T10:32:03.767Z,18.4
2019-03-15T10:33:03.357Z,19.4
2019-03-15T10:34:06.278Z,13.3
2019-03-15T10:35:03.651Z,14.8
2019-03-15T10:36:03.499Z,18.4
2019-03-15T10:37:06.827Z,14.8
2019-03-15T10:38:03.442Z,14.8
2019-03-15T10:39:03.320Z,13.3
2019-03-15T10:40:02.918Z,13.3
2019-03-15T10:41:03.302Z,20.9
2019-03-15T10:42:03.139Z,20.9
2019-03-15T10:43:03.186Z,14.8
2019-03-15T10:44:04.679Z,14.8
2019-03-15T10:45:03.182Z,14.8
2019-03-15T10:46:06.821Z,19.4
2019-03-15T10:47:03.725Z,15.8
2019-03-15T10:48:03.020Z,19.4
2019-03-15T10:49:03.779Z,13.3
2019-03-15T10:50:03.860Z,13.3
2019-03-15T10:51:03.710Z,25.6
2019-03-15T10:52:03.898Z,25.6
2019-03-15T10:53:03.838Z,13.3
2019-03-15T10:54:03.663Z,23.4
2019-03-15T10:55:03.652Z,24.5
2019-03-15T10:56:03.490Z,19.4
2019-03-15T10:57:03.406Z,19.4
2019-03-15T10:58:03.812Z,19.4
2019-03-15T10:59:03.648Z,18.4
2019-03-15T11:00:03.627Z,22
2019-03-15T11:01:03.550Z,13.3
2019-03-15T11:02:03.274Z,13.3
2019-03-15T11:03:03.427Z,13.3
2019-03-15T11:04:03.629Z,13.3
2019-03-15T11:05:03.557Z,13.3
2019-03-15T11:06:03.273Z,13.3
2019-03-15T11:07:02.937Z,13.3
2019-03-15T11:08:03.087Z,13.3
2019-03-15T11:09:03.165Z,14.8
2019-03-15T11:10:03.046Z,11.2
2019-03-15T11:11:03.136Z,12.2
2019-03-15T11:12:03.302Z,12.2
2019-03-15T11:13:02.926Z,7.2
2019-03-15T11:14:03.237Z,7.2
2019-03-15T11:15:02.896Z,9.7
2019-03-15T11:16:03.176Z,9.7
2019-03-15T11:17:03.122Z,9.7
2019-03-15T11:18:03.739Z,9.7
2019-03-15T11:19:03.955Z,11.2
2019-03-15T11:20:03.646Z,11.2
2019-03-15T11:21:03.268Z,11.2
2019-03-15T11:22:03.569Z,14.8
2019-03-15T11:23:03.912Z,13.3
2019-03-15T11:24:03.868Z,9.7
2019-03-15T11:25:04.028Z,8.6
2019-03-15T11:26:14.500Z,9.7
2019-03-15T11:27:02.954Z,7.2
2019-03-15T11:28:04.083Z,6.1
2019-03-15T11:29:03.769Z,6.1
2019-03-15T11:30:03.821Z,6.1
2019-03-15T11:31:03.776Z,18.4
2019-03-15T11:32:03.577Z,11.2
2019-03-15T11:33:03.705Z,8.6
2019-03-15T11:34:03.591Z,8.6
2019-03-15T11:35:03.552Z,7.2
2019-03-15T11:36:03.506Z,13.3
2019-03-15T11:37:04.052Z,8.6
2019-03-15T11:38:03.707Z,6.1
2019-03-15T11:39:03.173Z,6.1
2019-03-15T11:40:04.042Z,9.7
2019-03-15T11:41:03.418Z,14.8
2019-03-15T11:42:03.378Z,11.2
2019-03-15T11:43:03.295Z,11.2
2019-03-15T11:44:03.224Z,7.2
2019-03-15T11:45:03.406Z,7.2
2019-03-15T11:46:03.318Z,9.7
2019-03-15T11:47:04.110Z,7.2
2019-03-15T11:48:05.006Z,11.2
2019-03-15T11:49:03.721Z,7.2
2019-03-15T11:50:03.690Z,9.7
2019-03-15T11:51:03.347Z,9.7
2019-03-15T11:52:03.065Z,6.1
2019-03-15T11:53:02.912Z,6.1
2019-03-15T11:54:03.141Z,5
2019-03-15T11:55:03.432Z,11.2
2019-03-15T11:56:03.363Z,12.2
2019-03-15T11:57:03.551Z,14.8
2019-03-15T11:58:03.504Z,12.2
2019-03-15T11:59:03.340Z,9.7
2019-03-15T12:00:03.590Z,5
2019-03-15T12:01:03.476Z,11.2
2019-03-15T12:02:04.883Z,11.2
2019-03-15T12:03:03.186Z,15.8
2019-03-15T12:04:03.409Z,14.8
2019-03-15T12:05:03.244Z,12.2
2019-03-15T12:06:03.172Z,9.7
2019-03-15T12:07:03.023Z,14.8
2019-03-15T12:08:02.974Z,18.4
2019-03-15T12:09:03.037Z,7.2
2019-03-15T12:10:03.047Z,11.2
2019-03-15T12:11:03.023Z,13.3
2019-03-15T12:12:04.138Z,12.2
2019-03-15T12:13:03.129Z,13.3
2019-03-15T12:14:03.580Z,14.8
2019-03-15T12:15:03.293Z,11.2
2019-03-15T12:16:03.068Z,12.2
2019-03-15T12:17:03.722Z,7.2
2019-03-15T12:18:03.501Z,12.2
2019-03-15T12:19:03.547Z,12.2
2019-03-15T12:20:03.900Z,13.3
2019-03-15T12:21:03.702Z,12.2
2019-03-15T12:22:07.159Z,8.6
2019-03-15T12:23:03.832Z,7.2
2019-03-15T12:24:03.123Z,11.2
2019-03-15T12:25:03.958Z,9.7
2019-03-15T12:26:02.837Z,13.3
2019-03-15T12:27:03.794Z,13.3
2019-03-15T12:28:03.888Z,9.7
2019-03-15T12:29:03.604Z,11.2
2019-03-15T12:30:03.696Z,11.2
2019-03-15T12:31:03.568Z,11.2
2019-03-15T12:32:03.635Z,8.6
2019-03-15T12:33:03.585Z,13.3
2019-03-15T12:34:03.560Z,19.4
2019-03-15T12:35:03.644Z,18.4
2019-03-15T12:36:04.035Z,19.4
2019-03-15T12:37:03.593Z,12.2
2019-03-15T12:38:03.694Z,11.2
2019-03-15T12:39:03.329Z,14.8
2019-03-15T12:40:03.202Z,14.8
2019-03-15T12:41:03.308Z,14.8
2019-03-15T12:42:03.497Z,15.8
2019-03-15T12:43:03.060Z,18.4
2019-03-15T12:44:03.340Z,14.8
2019-03-15T12:45:03.371Z,15.8
2019-03-15T12:46:02.958Z,14.8
2019-03-15T12:47:06.856Z,19.4
2019-03-15T12:48:03.181Z,9.7
2019-03-15T12:49:02.956Z,11.2
2019-03-15T12:50:03.811Z,12.2
2019-03-15T12:51:03.053Z,13.3
2019-03-15T12:52:03.959Z,13.3
2019-03-15T12:53:03.932Z,11.2
2019-03-15T12:54:04.878Z,7.2
2019-03-15T12:55:03.938Z,12.2
2019-03-15T12:56:03.890Z,11.2
2019-03-15T12:57:03.664Z,12.2
2019-03-15T12:58:03.886Z,12.2
2019-03-15T12:59:03.668Z,11.2
2019-03-15T13:00:03.644Z,12.2
2019-03-15T13:01:03.488Z,15.8
2019-03-15T13:02:03.651Z,15.8
2019-03-15T13:03:03.538Z,15.8
2019-03-15T13:04:03.578Z,15.8
2019-03-15T13:05:03.493Z,15.8
2019-03-15T13:06:03.697Z,15.8
2019-03-15T13:07:03.441Z,15.8
2019-03-15T13:08:03.413Z,15.8
2019-03-15T13:09:03.480Z,12.2
2019-03-15T13:10:03.065Z,12.2
2019-03-15T13:11:03.341Z,13.3
2019-03-15T13:12:03.577Z,12.2
2019-03-15T13:13:03.475Z,12.2
2019-03-15T13:14:03.501Z,9.7
2019-03-15T13:15:03.379Z,11.2
2019-03-15T13:16:03.427Z,11.2
2019-03-15T13:17:03.329Z,11.2
2019-03-15T13:18:03.102Z,11.2
2019-03-15T13:19:03.366Z,8.6
2019-03-15T13:20:03.241Z,8.6
2019-03-15T13:21:03.244Z,8.6
2019-03-15T13:22:03.325Z,9.7
2019-03-15T13:23:03.452Z,9.7
2019-03-15T13:24:03.754Z,9.7
2019-03-15T13:25:03.323Z,8.6
2019-03-15T13:26:03.256Z,9.7
2019-03-15T13:27:08.340Z,9.7
2019-03-15T13:28:03.088Z,9.7
2019-03-15T13:29:02.945Z,9.7
2019-03-15T13:30:03.082Z,9.7
2019-03-15T13:31:02.842Z,14.8
2019-03-15T13:32:02.940Z,14.8
2019-03-15T13:33:03.771Z,13.3